createdAt,value
2022-08-05T00:00:17.627Z,98077.03
2022-08-05T00:02:50.734Z,98077.09
2022-08-05T00:06:01.638Z,98066.06
2022-08-05T00:08:05.716Z,98063.72
2022-08-05T00:10:51.901Z,98066.03
2022-08-05T00:13:18.539Z,98060.47
2022-08-05T00:15:58.128Z,98060.47
2022-08-05T00:18:26.854Z,98059.63
2022-08-05T00:20:55.984Z,98068.38
2022-08-05T00:23:44.831Z,98076.34
2022-08-05T00:26:10.266Z,98074.06
2022-08-05T00:28:37.692Z,98072.94
2022-08-05T00:31:07.722Z,98073.34
2022-08-05T00:34:53.476Z,98072.91
2022-08-05T00:37:09.839Z,98079.22
2022-08-05T00:39:13.714Z,98085.97
2022-08-05T00:41:51.790Z,98082.06
2022-08-05T00:44:21.407Z,98081.34
2022-08-05T00:46:54.269Z,98079.72
2022-08-05T00:49:32.764Z,98098.47
2022-08-05T00:52:10.932Z,98089.47
2022-08-05T00:54:38.629Z,98114.22
2022-08-05T00:57:05.196Z,98119.09
2022-08-05T00:59:34.565Z,98128.44
2022-08-05T01:02:11.240Z,98132.03
2022-08-05T01:04:37.837Z,98137.59
2022-08-05T01:07:08.649Z,98142.25
2022-08-05T01:09:41.797Z,98150.09
2022-08-05T01:12:18.013Z,98153.56
2022-08-05T01:15:03.831Z,98141.94
2022-08-05T01:17:39.985Z,98138.69
2022-08-05T01:20:40.361Z,98144.25
2022-08-05T01:23:23.445Z,98152.25
2022-08-05T01:26:20.857Z,98155.09
2022-08-05T01:29:05.085Z,98167.50
2022-08-05T01:31:44.874Z,98173.16
2022-08-05T01:34:21.968Z,98166.47
2022-08-05T01:37:07.807Z,98174.09
2022-08-05T01:39:45.973Z,98170.91
2022-08-05T01:42:17.516Z,98184.44
2022-08-05T01:44:53.876Z,98185.22
2022-08-05T01:47:22.397Z,98192.78
2022-08-05T01:50:01.514Z,98203.50
2022-08-05T01:52:31.541Z,98205.50
2022-08-05T01:55:04.670Z,98207.88
2022-08-05T01:58:10.636Z,98203.53
2022-08-05T02:00:29.974Z,98212.28
2022-08-05T02:03:29.114Z,98203.16
2022-08-05T02:06:01.136Z,98204.38
2022-08-05T02:08:31.615Z,98204.38
2022-08-05T02:11:23.899Z,98196.84
2022-08-05T02:14:12.924Z,98193.66
2022-08-05T02:16:55.148Z,98191.66
2022-08-05T02:19:34.317Z,98200.44
2022-08-05T02:22:26.512Z,98200.06
2022-08-05T02:25:08.545Z,98206.44
2022-08-05T02:27:59.192Z,98201.66
2022-08-05T02:30:35.209Z,98202.47
2022-08-05T02:33:02.870Z,98211.59
2022-08-05T02:35:33.339Z,98202.84
2022-08-05T02:38:05.961Z,98213.94
2022-08-05T02:40:38.003Z,98211.97
2022-08-05T02:43:07.279Z,98204.41
2022-08-05T02:45:51.491Z,98206.81
2022-08-05T02:48:29.042Z,98207.59
2022-08-05T02:50:59.844Z,98214.00
2022-08-05T02:53:28.548Z,98209.22
2022-08-05T02:56:08.323Z,98202.09
2022-08-05T02:58:36.721Z,98206.84
2022-08-05T03:01:14.591Z,98207.59
2022-08-05T03:04:02.984Z,98211.59
2022-08-05T03:06:56.160Z,98206.44
2022-08-05T03:09:17.920Z,98213.56
2022-08-05T03:12:04.458Z,98213.59
2022-08-05T03:14:30.904Z,98212.81
2022-08-05T03:16:57.348Z,98227.13
2022-08-05T03:19:34.553Z,98229.19
2022-08-05T03:22:05.004Z,98249.81
2022-08-05T03:24:46.941Z,98233.56
2022-08-05T03:27:14.195Z,98239.13
2022-08-05T03:29:45.313Z,98248.22
2022-08-05T03:32:30.839Z,98247.06
2022-08-05T03:34:59.547Z,98251.81
2022-08-05T03:37:27.330Z,98254.59
2022-08-05T03:40:01.472Z,98250.25
2022-08-05T03:42:31.967Z,98242.28
2022-08-05T03:44:58.964Z,98235.53
2022-08-05T03:47:35.243Z,98236.34
2022-08-05T03:50:02.137Z,98239.13
2022-08-05T03:52:50.624Z,98243.09
2022-08-05T03:56:09.454Z,98240.72
2022-08-05T03:58:22.715Z,98221.69
2022-08-05T04:00:57.755Z,98222.09
2022-08-05T04:03:29.294Z,98212.56
2022-08-05T04:05:58.020Z,98213.38
2022-08-05T04:08:34.905Z,98218.53
2022-08-05T04:11:07.354Z,98220.91
2022-08-05T04:13:50.336Z,98226.06
2022-08-05T04:16:24.931Z,98234.41
2022-08-05T04:18:57.762Z,98229.25
2022-08-05T04:22:05.096Z,98222.94
2022-08-05T04:24:14.232Z,98232.44
2022-08-05T04:26:46.707Z,98237.19
2022-08-05T04:29:13.288Z,98243.94
2022-08-05T04:31:40.919Z,98267.72
2022-08-05T04:34:31.139Z,98282.44
2022-08-05T04:36:54.485Z,98302.25
2022-08-05T04:39:21.706Z,98326.84
2022-08-05T04:41:51.203Z,98332.38
2022-08-05T04:44:21.247Z,98344.25
2022-08-05T04:46:55.612Z,98342.69
2022-08-05T04:49:24.613Z,98354.16
2022-08-05T04:52:05.079Z,98360.16
2022-08-05T04:54:34.292Z,98366.47
2022-08-05T04:57:00.723Z,98379.56
2022-08-05T04:59:36.819Z,98383.13
2022-08-05T05:02:37.370Z,98385.13
2022-08-05T05:04:52.511Z,98387.88
2022-08-05T05:07:29.525Z,98402.16
2022-08-05T05:09:59.068Z,98423.53
2022-08-05T05:12:29.099Z,98440.97
2022-08-05T05:14:55.575Z,98454.47
2022-08-05T05:17:24.590Z,98434.63
2022-08-05T05:20:09.221Z,98440.97
2022-08-05T05:22:35.826Z,98449.31
2022-08-05T05:25:17.101Z,98443.38
2022-08-05T05:27:53.493Z,98456.09
2022-08-05T05:30:30.927Z,98458.88
2022-08-05T05:33:08.792Z,98455.31
2022-08-05T05:35:43.457Z,98456.13
2022-08-05T05:38:12.880Z,98464.84
2022-08-05T05:40:48.103Z,98452.56
2022-08-05T05:43:27.895Z,98472.03
2022-08-05T05:46:08.487Z,98473.63
2022-08-05T05:48:41.729Z,98484.75
2022-08-05T05:51:15.511Z,98487.94
2022-08-05T05:53:46.142Z,98484.75
2022-08-05T05:56:31.827Z,98481.16
2022-08-05T05:59:03.313Z,98500.22
2022-08-05T06:01:38.130Z,98503.81
2022-08-05T06:04:07.294Z,98499.00
2022-08-05T06:06:35.106Z,98508.56
2022-08-05T06:09:04.100Z,98511.72
2022-08-05T06:11:31.445Z,98512.16
2022-08-05T06:13:57.997Z,98504.19
2022-08-05T06:16:32.782Z,98513.25
2022-08-05T06:19:01.828Z,98505.69
2022-08-05T06:21:36.881Z,98502.88
2022-08-05T06:24:14.605Z,98492.53
2022-08-05T06:26:52.269Z,98493.72
2022-08-05T06:29:25.306Z,98492.53
2022-08-05T06:32:25.190Z,98486.47
2022-08-05T06:34:57.358Z,98485.28
2022-08-05T06:37:55.905Z,98478.53
2022-08-05T06:40:18.278Z,98480.06
2022-08-05T06:42:48.119Z,98495.88
2022-08-05T06:45:20.708Z,98490.69
2022-08-05T06:48:36.175Z,98497.47
2022-08-05T06:50:34.687Z,98493.09
2022-08-05T06:53:11.395Z,98491.88
2022-08-05T06:55:38.230Z,98487.06
2022-08-05T06:58:29.159Z,98487.00
2022-08-05T07:00:55.415Z,98497.66
2022-08-05T07:03:21.848Z,98495.25
2022-08-05T07:05:59.122Z,98498.44
2022-08-05T07:08:25.613Z,98512.97
2022-08-05T07:10:52.930Z,98510.69
2022-08-05T07:13:59.431Z,98505.97
2022-08-05T07:17:56.816Z,98525.94
2022-08-05T07:22:28.116Z,98541.28
2022-08-05T07:24:56.063Z,98545.50
2022-08-05T07:27:23.000Z,98549.44
2022-08-05T07:30:28.172Z,98544.97
2022-08-05T07:32:43.288Z,98534.94
2022-08-05T07:36:03.735Z,98541.19
2022-08-05T07:38:00.721Z,98535.25
2022-08-05T07:40:32.268Z,98540.38
2022-08-05T07:42:59.623Z,98543.47
2022-08-05T07:45:58.102Z,98542.72
2022-08-05T07:49:00.468Z,98542.88
2022-08-05T07:51:05.453Z,98540.41
2022-08-05T07:53:50.469Z,98548.25
2022-08-05T07:57:01.506Z,98537.72
2022-08-05T07:59:04.078Z,98544.00
2022-08-05T08:01:30.544Z,98532.19
2022-08-05T08:03:57.005Z,98544.38
2022-08-05T08:06:24.027Z,98549.19
2022-08-05T08:08:54.749Z,98544.47
2022-08-05T08:11:27.815Z,98542.00
2022-08-05T08:14:07.634Z,98547.31
2022-08-05T08:16:50.154Z,98549.31
2022-08-05T08:20:10.890Z,98549.31
2022-08-05T08:22:05.753Z,98548.41
2022-08-05T08:24:51.070Z,98553.44
2022-08-05T08:27:18.541Z,98553.06
2022-08-05T08:30:04.118Z,98542.63
2022-08-05T08:32:34.273Z,98540.94
2022-08-05T08:35:13.554Z,98547.44
2022-08-05T08:37:40.224Z,98533.94
2022-08-05T08:40:12.597Z,98532.31
2022-08-05T08:42:50.515Z,98542.72
2022-08-05T08:45:26.799Z,98535.97
2022-08-05T08:48:12.635Z,98524.84
2022-08-05T08:51:03.563Z,98512.31
2022-08-05T08:53:37.741Z,98506.44
2022-08-05T08:56:07.078Z,98508.50
2022-08-05T08:58:43.192Z,98516.47
2022-08-05T09:01:15.805Z,98508.59
2022-08-05T09:03:45.699Z,98512.81
2022-08-05T09:06:15.796Z,98512.03
2022-08-05T09:08:45.612Z,98497.19
2022-08-05T09:11:13.996Z,98495.09
2022-08-05T09:14:09.997Z,98498.47
2022-08-05T09:16:28.524Z,98485.69
2022-08-05T09:18:55.998Z,98493.38
2022-08-05T09:25:24.518Z,98482.63
2022-08-05T09:28:15.707Z,98480.81
2022-08-05T09:31:22.120Z,98474.69
2022-08-05T09:33:58.376Z,98463.06
2022-08-05T09:36:38.665Z,98457.81
2022-08-05T09:39:22.461Z,98453.09
2022-08-05T09:42:00.411Z,98461.31
2022-08-05T09:44:39.706Z,98452.00
2022-08-05T09:47:20.872Z,98447.25
2022-08-05T09:50:01.114Z,98452.25
2022-08-05T09:52:36.151Z,98440.50
2022-08-05T09:55:56.084Z,98443.63
2022-08-05T09:57:59.807Z,98444.88
2022-08-05T10:00:30.546Z,98448.84
2022-08-05T10:02:58.012Z,98451.72
2022-08-05T10:09:25.320Z,98445.41
2022-08-05T10:12:18.621Z,98441.41
2022-08-05T10:15:12.787Z,98447.31
2022-08-05T10:17:47.172Z,98439.59
2022-08-05T10:20:23.162Z,98443.47
2022-08-05T10:22:51.872Z,98445.16
2022-08-05T10:25:19.619Z,98435.84
2022-08-05T10:28:12.768Z,98436.31
2022-08-05T10:31:20.751Z,98435.94
2022-08-05T10:33:24.242Z,98440.34
2022-08-05T10:35:59.661Z,98432.94
2022-08-05T10:38:33.283Z,98437.31
2022-08-05T10:41:45.200Z,98434.63
2022-08-05T10:44:18.103Z,98429.22
2022-08-05T10:46:56.361Z,98434.84
2022-08-05T10:49:26.629Z,98429.63
2022-08-05T10:52:00.383Z,98433.50
2022-08-05T10:55:05.762Z,98423.63
2022-08-05T10:57:34.138Z,98424.56
2022-08-05T11:00:19.671Z,98425.63
2022-08-05T11:03:25.915Z,98420.75
2022-08-05T11:06:15.301Z,98422.41
2022-08-05T11:09:32.167Z,98432.38
2022-08-05T11:12:26.738Z,98422.03
2022-08-05T11:15:21.686Z,98422.13
2022-08-05T11:17:59.486Z,98422.63
2022-08-05T11:20:44.606Z,98427.69
2022-08-05T11:23:25.981Z,98420.44
2022-08-05T11:26:10.618Z,98427.97
2022-08-05T11:28:43.118Z,98433.22
2022-08-05T11:31:10.171Z,98426.97
2022-08-05T11:33:52.411Z,98432.28
2022-08-05T11:36:42.761Z,98430.13
2022-08-05T11:39:10.305Z,98434.31
2022-08-05T11:42:02.066Z,98431.41
2022-08-05T11:44:40.347Z,98428.16
2022-08-05T11:47:48.581Z,98426.88
2022-08-05T11:50:10.265Z,98425.53
2022-08-05T11:52:41.617Z,98426.06
2022-08-05T11:55:11.325Z,98412.13
2022-08-05T11:58:10.797Z,98415.22
2022-08-05T12:00:32.527Z,98413.31
2022-08-05T12:03:31.506Z,98411.69
2022-08-05T12:06:06.403Z,98409.75
2022-08-05T12:08:50.025Z,98411.94
2022-08-05T12:11:28.426Z,98409.75
2022-08-05T12:14:11.172Z,98407.28
2022-08-05T12:16:40.055Z,98400.25
2022-08-05T12:20:25.897Z,98408.84
2022-08-05T12:21:58.554Z,98408.94
2022-08-05T12:24:27.656Z,98404.75
2022-08-05T12:26:54.645Z,98402.91
2022-08-05T12:29:24.582Z,98404.03
2022-08-05T12:31:56.158Z,98400.56
2022-08-05T12:34:28.245Z,98398.72
2022-08-05T12:36:56.894Z,98391.94
2022-08-05T12:39:28.064Z,98389.97
2022-08-05T12:42:01.447Z,98392.81
2022-08-05T12:44:33.156Z,98390.47
2022-08-05T12:47:02.715Z,98383.59
2022-08-05T12:50:03.017Z,98386.16
2022-08-05T12:52:39.507Z,98384.00
2022-08-05T12:55:22.494Z,98385.31
2022-08-05T12:58:48.268Z,98393.28
2022-08-05T13:02:03.364Z,98373.53
2022-08-05T13:03:32.558Z,98373.03
2022-08-05T13:05:59.811Z,98366.75
2022-08-05T13:08:30.217Z,98366.06
2022-08-05T13:11:01.210Z,98365.63
2022-08-05T13:14:05.324Z,98365.72
2022-08-05T13:16:17.133Z,98359.94
2022-08-05T13:18:55.198Z,98369.47
2022-08-05T13:21:28.153Z,98364.63
2022-08-05T13:24:04.427Z,98361.22
2022-08-05T13:26:30.895Z,98368.09
2022-08-05T13:28:58.966Z,98351.84
2022-08-05T13:31:33.714Z,98367.97
2022-08-05T13:34:22.684Z,98362.13
2022-08-05T13:36:52.227Z,98361.84
2022-08-05T13:40:12.752Z,98359.41
2022-08-05T13:42:07.296Z,98355.91
2022-08-05T13:44:34.683Z,98350.03
2022-08-05T13:47:04.956Z,98351.25
2022-08-05T13:49:35.814Z,98345.72
2022-08-05T13:52:16.724Z,98337.38
2022-08-05T13:54:43.984Z,98333.78
2022-08-05T13:57:20.800Z,98339.31
2022-08-05T13:59:57.288Z,98330.97
2022-08-05T14:02:26.501Z,98326.38
2022-08-05T14:05:11.459Z,98328.72
2022-08-05T14:07:59.499Z,98325.34
2022-08-05T14:10:31.040Z,98332.13
2022-08-05T14:12:58.208Z,98336.22
2022-08-05T14:16:08.274Z,98327.56
2022-08-05T14:18:15.025Z,98324.41
2022-08-05T14:20:47.505Z,98331.63
2022-08-05T14:23:25.109Z,98343.50
2022-08-05T14:25:58.205Z,98338.22
2022-08-05T14:28:27.857Z,98332.75
2022-08-05T14:30:55.674Z,98332.72
2022-08-05T14:33:23.858Z,98340.28
2022-08-05T14:35:51.697Z,98342.19
2022-08-05T14:38:31.788Z,98331.25
2022-08-05T14:41:00.071Z,98329.75
2022-08-05T14:44:01.780Z,98349.47
2022-08-05T14:46:13.103Z,98351.06
2022-08-05T14:48:39.590Z,98362.03
2022-08-05T14:51:06.199Z,98373.50
2022-08-05T14:53:35.070Z,98358.94
2022-08-05T14:56:11.609Z,98358.28
2022-08-05T14:58:38.607Z,98345.41
2022-08-05T15:01:16.085Z,98363.88
2022-08-05T15:03:43.303Z,98348.94
2022-08-05T15:06:15.163Z,98347.53
2022-08-05T15:09:01.210Z,98355.53
2022-08-05T15:11:52.407Z,98361.22
2022-08-05T15:14:33.538Z,98374.75
2022-08-05T15:17:03.925Z,98376.72
2022-08-05T15:19:31.004Z,98392.84
2022-08-05T15:21:59.865Z,98425.38
2022-08-05T15:24:27.322Z,98463.84
2022-08-05T15:26:53.733Z,98459.31
2022-08-05T15:29:22.641Z,98388.72
2022-08-05T15:31:52.910Z,98373.19
2022-08-05T15:34:33.099Z,98415.50
2022-08-05T15:37:06.143Z,98411.44
2022-08-05T15:41:00.359Z,98407.91
2022-08-05T15:42:50.320Z,98415.09
2022-08-05T15:45:14.653Z,98414.97
2022-08-05T15:47:42.341Z,98422.03
2022-08-05T15:50:13.950Z,98423.38
2022-08-05T15:52:52.853Z,98430.00
2022-08-05T15:55:24.707Z,98428.66
2022-08-05T15:57:51.960Z,98434.84
2022-08-05T16:00:32.721Z,98433.06
2022-08-05T16:03:05.628Z,98426.38
2022-08-05T16:05:32.142Z,98418.00
2022-08-05T16:07:58.584Z,98421.72
2022-08-05T16:10:28.370Z,98427.94
2022-08-05T16:12:55.944Z,98419.88
2022-08-05T16:15:23.193Z,98435.88
2022-08-05T16:17:57.352Z,98425.59
2022-08-05T16:20:25.324Z,98430.81
2022-08-05T16:22:51.758Z,98441.56
2022-08-05T16:25:18.494Z,98432.44
2022-08-05T16:28:00.339Z,98437.56
2022-08-05T16:30:32.298Z,98441.59
2022-08-05T16:33:00.359Z,98445.41
2022-08-05T16:35:28.651Z,98449.06
2022-08-05T16:38:01.816Z,98453.06
2022-08-05T16:40:47.693Z,98472.28
2022-08-05T16:43:18.982Z,98477.91
2022-08-05T16:46:07.098Z,98482.22
2022-08-05T16:48:34.033Z,98473.06
2022-08-05T16:51:01.756Z,98472.19
2022-08-05T16:53:31.912Z,98479.06
2022-08-05T16:55:59.450Z,98473.13
2022-08-05T16:58:26.003Z,98491.06
2022-08-05T17:00:52.995Z,98493.97
2022-08-05T17:03:20.072Z,98493.63
2022-08-05T17:05:51.827Z,98487.69
2022-08-05T17:08:33.466Z,98487.41
2022-08-05T17:11:03.684Z,98511.47
2022-08-05T17:13:41.184Z,98507.47
2022-08-05T17:16:27.946Z,98499.13
2022-08-05T17:18:54.668Z,98502.28
2022-08-05T17:21:21.146Z,98502.66
2022-08-05T17:24:05.607Z,98499.06
2022-08-05T17:26:35.584Z,98505.13
2022-08-05T17:29:07.495Z,98496.81
2022-08-05T17:31:57.355Z,98503.22
2022-08-05T17:34:29.731Z,98515.59
2022-08-05T17:37:00.011Z,98516.06
2022-08-05T17:39:29.826Z,98517.75
2022-08-05T17:42:20.010Z,98528.97
2022-08-05T17:44:50.435Z,98513.09
2022-08-05T17:47:22.310Z,98523.44
2022-08-05T17:50:00.270Z,98521.50
2022-08-05T17:52:53.436Z,98530.28
2022-08-05T17:55:27.186Z,98537.41
2022-08-05T17:58:02.021Z,98535.44
2022-08-05T18:00:29.476Z,98545.75
2022-08-05T18:02:56.306Z,98547.00
2022-08-05T18:05:23.714Z,98548.16
2022-08-05T18:07:54.455Z,98559.72
2022-08-05T18:10:23.730Z,98571.28
2022-08-05T18:12:50.239Z,98567.75
2022-08-05T18:15:17.151Z,98573.72
2022-08-05T18:18:01.167Z,98576.09
2022-08-05T18:20:31.899Z,98594.75
2022-08-05T18:22:59.625Z,98580.88
2022-08-05T18:25:35.165Z,98597.09
2022-08-05T18:28:05.354Z,98591.16
2022-08-05T18:30:33.049Z,98599.91
2022-08-05T18:33:00.482Z,98608.22
2022-08-05T18:35:59.952Z,98597.47
2022-08-05T18:38:16.479Z,98600.63
2022-08-05T18:41:56.092Z,98621.25
2022-08-05T18:43:38.378Z,98623.66
2022-08-05T18:46:10.288Z,98641.09
2022-08-05T18:48:41.619Z,98649.78
2022-08-05T18:52:05.360Z,98648.63
2022-08-05T18:54:22.015Z,98668.88
2022-08-05T18:56:51.214Z,98669.66
2022-08-05T18:59:43.863Z,98668.06
2022-08-05T19:02:11.188Z,98676.72
2022-08-05T19:05:01.371Z,98679.03
2022-08-05T19:07:46.231Z,98678.22
2022-08-05T19:10:18.757Z,98687.69
2022-08-05T19:12:55.829Z,98697.91
2022-08-05T19:15:54.735Z,98687.56
2022-08-05T19:18:20.981Z,98688.34
2022-08-05T19:20:51.977Z,98703.81
2022-08-05T19:23:22.643Z,98705.00
2022-08-05T19:26:05.312Z,98710.09
2022-08-05T19:28:35.692Z,98717.25
2022-08-05T19:31:05.980Z,98705.31
2022-08-05T19:33:36.413Z,98707.66
2022-08-05T19:36:12.033Z,98717.56
2022-08-05T19:38:41.507Z,98730.28
2022-08-05T19:41:09.040Z,98751.31
2022-08-05T19:44:07.011Z,98753.22
2022-08-05T19:46:30.261Z,98766.34
2022-08-05T19:49:03.080Z,98754.75
2022-08-05T19:52:05.301Z,98746.78
2022-08-05T19:54:25.547Z,98742.00
2022-08-05T19:56:57.774Z,98749.94
2022-08-05T19:59:56.020Z,98764.94
2022-08-05T20:02:11.049Z,98765.69
2022-08-05T20:04:37.719Z,98785.03
2022-08-05T20:07:13.098Z,98790.94
2022-08-05T20:09:53.649Z,98782.56
2022-08-05T20:12:21.825Z,98775.63
2022-08-05T20:14:52.083Z,98778.91
2022-08-05T20:17:19.279Z,98787.34
2022-08-05T20:19:50.264Z,98796.19
2022-08-05T20:22:16.811Z,98789.06
2022-08-05T20:24:43.215Z,98799.41
2022-08-05T20:27:11.353Z,98823.56
2022-08-05T20:29:38.354Z,98816.50
2022-08-05T20:32:06.530Z,98806.44
2022-08-05T20:34:33.014Z,98785.84
2022-08-05T20:37:00.718Z,98817.91
2022-08-05T20:39:35.663Z,98818.97
2022-08-05T20:42:04.466Z,98815.03
2022-08-05T20:44:33.058Z,98822.28
2022-08-05T20:47:07.378Z,98826.34
2022-08-05T20:49:38.067Z,98835.59
2022-08-05T20:52:07.352Z,98845.03
2022-08-05T20:54:59.068Z,98855.00
2022-08-05T20:57:24.596Z,98853.28
2022-08-05T21:00:41.204Z,98846.22
2022-08-05T21:03:00.085Z,98851.22
2022-08-05T21:05:28.518Z,98847.16
2022-08-05T21:08:14.648Z,98855.00
2022-08-05T21:10:48.583Z,98851.88
2022-08-05T21:13:26.387Z,98857.75
2022-08-05T21:16:02.277Z,98873.09
2022-08-05T21:18:30.199Z,98886.03
2022-08-05T21:20:57.453Z,98892.06
2022-08-05T21:23:24.541Z,98892.66
2022-08-05T21:25:51.455Z,98893.47
2022-08-05T21:28:23.942Z,98896.44
2022-08-05T21:30:57.230Z,98891.75
2022-08-05T21:33:24.136Z,98910.59
2022-08-05T21:36:03.888Z,98927.47
2022-08-05T21:38:30.527Z,98926.31
2022-08-05T21:40:57.130Z,98925.94
2022-08-05T21:43:25.148Z,98933.44
2022-08-05T21:45:57.780Z,98931.84
2022-08-05T21:48:28.157Z,98924.72
2022-08-05T21:50:55.174Z,98923.97
2022-08-05T21:53:22.014Z,98924.63
2022-08-05T21:56:05.209Z,98922.47
2022-08-05T21:58:36.770Z,98932.13
2022-08-05T22:01:10.636Z,98927.59
2022-08-05T22:03:49.139Z,98937.75
2022-08-05T22:06:22.582Z,98935.06
2022-08-05T22:08:52.121Z,98934.34
2022-08-05T22:11:34.715Z,98941.19
2022-08-05T22:14:06.556Z,98942.91
2022-08-05T22:16:51.818Z,98948.13
2022-08-05T22:20:00.390Z,98947.25
2022-08-05T22:22:06.679Z,98951.81
2022-08-05T22:24:53.651Z,98960.34
2022-08-05T22:28:09.781Z,98971.56
2022-08-05T22:30:32.096Z,98981.63
2022-08-05T22:32:59.143Z,98991.25
2022-08-05T22:35:25.607Z,98991.78
2022-08-05T22:37:58.598Z,98982.22
2022-08-05T22:40:26.310Z,98997.19
2022-08-05T22:42:57.768Z,98993.56
2022-08-05T22:45:26.259Z,98995.44
2022-08-05T22:47:55.403Z,99011.09
2022-08-05T22:50:27.851Z,99022.84
2022-08-05T22:52:54.840Z,99016.53
2022-08-05T22:55:23.372Z,99015.38
2022-08-05T22:57:53.668Z,99022.13
2022-08-05T23:00:23.321Z,99029.97
2022-08-05T23:02:51.821Z,99029.72
2022-08-05T23:05:19.079Z,99038.88
2022-08-05T23:07:50.210Z,99039.78
2022-08-05T23:10:19.721Z,99046.19
2022-08-05T23:12:47.062Z,99040.38
2022-08-05T23:15:13.503Z,99046.28
2022-08-05T23:18:00.128Z,99048.06
2022-08-05T23:20:31.235Z,99046.19
2022-08-05T23:22:58.994Z,99046.28
2022-08-05T23:25:51.361Z,99048.88
2022-08-05T23:28:13.175Z,99054.66
2022-08-05T23:30:43.847Z,99054.56
2022-08-05T23:33:25.719Z,99062.41
2022-08-05T23:36:05.868Z,99065.34
2022-08-05T23:38:36.528Z,99069.72
2022-08-05T23:41:02.914Z,99072.38
2022-08-05T23:44:05.366Z,99082.06
2022-08-05T23:46:17.604Z,99078.41
2022-08-05T23:48:46.958Z,99079.66
2022-08-05T23:51:52.479Z,99079.22
2022-08-05T23:54:25.878Z,99070.13
2022-08-05T23:56:58.304Z,99073.69
